Latest Weather Observations for Young

IDN60801

Issued at 11:03 pm EST Monday 6 July 2015 (issued every 30 minutes, with the page automatically refreshed every 10 minutes)

About weather observations | Map of weather stations | Latest weather observations for NSW | Other Formats
Station Details ID: 073138 Name: YOUNG AIRPORT Lat: -34.25 Lon: 148.25 Height: 379.6 m
Data from the previous 72 hours. | See also: Recent months at Young
Date/Time
EST
Temp
°C
App
Temp
°C
Dew
Point
Rel
Hum
%
Delta-T
°C
Wind Press
QNH
hPa
Press
MSL
hPa
Rain
since 9 am
mm
Dir
 
Spd
km/h
Gust
km/h
Spd
kts
Gust
kts
06/11:00pm 1.0 -0.9 0.6 97 0.2 CALM 0 0 0 0 1019.1 1019.9 0.0
06/10:30pm 1.6 -0.9 1.5 99 0.0 S 4 6 2 3 1019.1 1019.9 0.0
06/10:00pm 1.3 -1.3 1.2 99 0.0 SSW 4 6 2 3 1018.9 1019.7 0.0
06/09:30pm 1.1 -1.5 1.0 99 0.0 SSE 4 6 2 3 1018.9 1019.7 0.0
06/09:00pm 0.4 -2.7 0.1 98 0.1 SSW 6 7 3 4 1018.9 1019.7 0.0
06/08:30pm 0.3 -2.8 0.0 98 0.1 S 6 7 3 4 1018.9 1019.7 0.0
06/08:00pm 0.3 -1.7 -0.1 97 0.1 CALM 0 0 0 0 1018.6 1019.3 0.0
06/07:30pm 0.3 -2.9 -0.3 96 0.2 SW 6 7 3 4 1018.5 1019.2 0.0
06/07:00pm 1.6 -1.6 1.0 96 0.2 SSW 7 7 4 4 1018.3 1019.0 0.0
06/06:30pm 2.1 -0.1 0.9 92 0.5 SSW 2 6 1 3 1018.0 1018.7 0.0
06/06:00pm 2.9 -0.1 0.8 86 0.8 WSW 6 7 3 4 1017.8 1018.5 0.0
06/05:30pm 5.7 3.7 2.5 80 1.3 W 2 6 1 3 1017.5 1018.2 0.0
06/05:00pm 7.7 4.9 3.0 72 2.0 WNW 7 9 4 5 1017.2 1018.0 0.0
06/04:30pm 9.3 6.6 3.5 67 2.6 W 7 9 4 5 1017.2 1018.0 0.0
06/04:00pm 9.4 5.8 2.9 64 2.8 WNW 11 17 6 9 1017.1 1017.9 0.0
06/03:30pm 9.8 5.5 3.1 63 3.0 W 15 22 8 12 1017.1 1017.9 0.0
06/03:00pm 9.8 5.4 2.6 61 3.1 WNW 15 20 8 11 1016.7 1017.5 0.0
06/02:30pm 10.0 5.9 2.4 59 3.3 W 13 22 7 12 1016.8 1017.6 0.0
06/02:00pm 9.9 5.4 2.3 59 3.3 W 15 20 8 11 1016.7 1017.5 0.0
06/01:30pm 8.7 5.0 2.3 64 2.7 WNW 11 17 6 9 1016.8 1017.6 0.0
06/01:00pm 8.3 4.4 3.2 70 2.2 W 13 19 7 10 1017.0 1017.8 0.0
06/12:30pm 8.0 5.1 4.8 80 1.4 W 9 15 5 8 1017.2 1018.0 0.0
06/12:00pm 8.0 5.3 5.6 85 1.1 W 9 17 5 9 1017.5 1018.2 0.0
06/11:30am 6.4 4.2 6.3 99 0.0 NNW 7 11 4 6 1018.1 1018.8 0.0
06/11:00am 5.7 3.6 5.6 99 0.0 N 6 9 3 5 1018.5 1019.2 0.0
06/10:30am 4.6 3.4 4.5 99 0.0 CALM 0 0 0 0 1018.6 1019.3 0.0
06/10:00am 3.7 2.3 3.6 99 0.0 CALM 0 0 0 0 1018.9 1019.7 0.0
06/09:30am 2.8 0.9 2.7 99 0.0 SW 2 6 1 3 1018.7 1019.4 0.0
06/09:00am 2.0 -0.8 1.9 99 0.0 SSE 6 7 3 4 1018.7 1019.4 0.4
06/08:30am 1.4 -1.7 1.3 99 0.0 S 7 9 4 5 1018.6 1019.3 0.4
06/08:00am 0.8 -2.2 0.7 99 0.0 S 6 7 3 4 1018.4 1019.1 0.0
06/07:30am 0.3 -2.8 0.2 99 0.0 SSW 6 7 3 4 1018.2 1018.9 0.0
06/07:00am 0.2 -2.9 0.1 99 0.0 S 6 7 3 4 1018.2 1018.9 0.0
06/06:30am 0.2 -2.9 0.1 99 0.0 SSW 6 7 3 4 1018.1 1018.8 0.0
06/06:00am 0.0 -2.8 -0.1 99 0.0 SSW 4 7 2 4 1018.0 1018.7 0.0
06/05:30am -0.2 -3.4 -0.3 99 0.0 SSE 6 7 3 4 1018.0 1018.7 0.0
06/05:00am -0.4 -3.6 -0.5 99 0.0 SSE 6 6 3 3 1018.0 1018.7 0.0
06/04:30am -0.4 -3.8 -0.5 99 0.0 S 7 7 4 4 1018.1 1018.8 0.0
06/04:00am -0.2 -3.6 -0.3 99 0.0 S 7 7 4 4 1018.2 1018.9 0.0
06/03:30am -0.6 -3.8 -0.7 99 0.0 SSW 6 6 3 3 1018.3 1019.0 0.0
06/03:00am -0.4 -2.5 -0.5 99 0.0 CALM 0 0 0 0 1018.5 1019.2 0.0
06/02:30am -0.8 -2.9 -0.9 99 0.0 CALM 0 0 0 0 1018.5 1019.2 0.0
06/02:00am -0.2 -2.2 -0.3 99 0.0 CALM 0 0 0 0 1018.9 1019.7 0.0
06/01:30am -0.4 -2.5 -0.5 99 0.0 CALM 0 0 0 0 1019.0 1019.8 0.0
06/01:00am 0.0 -3.3 -0.1 99 0.0 S 7 9 4 5 1019.2 1020.0 0.0
06/12:30am 0.0 -2.0 -0.1 99 0.0 CALM 0 6 0 3 1019.5 1020.3 0.0
06/12:00am -0.1 -2.1 -0.2 99 0.0 CALM 0 0 0 0 1019.7 1020.5 0.0
 
Date/Time
EST
Temp
°C
App
Temp
°C
Dew
Point
Rel
Hum
%
Delta-T
°C
Wind Press
QNH
hPa
Press
MSL
hPa
Rain
since 9 am
mm
Dir
 
Spd
km/h
Gust
km/h
Spd
kts
Gust
kts
05/11:30pm -1.1 -4.4 -1.2 99 0.0 S 6 6 3 3 1019.9 1020.7 0.0
05/11:00pm -2.1 -5.7 -2.4 98 0.0 S 7 7 4 4 1020.0 1020.8 0.0
05/10:30pm -1.7 -4.0 -2.0 98 0.0 CALM 0 0 0 0 1020.0 1020.8 0.0
05/10:00pm -1.7 -4.0 -2.1 97 0.1 CALM 0 0 0 0 1019.9 1020.7 0.0
05/09:30pm -0.8 -2.9 -1.1 98 0.1 CALM 0 0 0 0 1019.9 1020.7 0.0
05/09:00pm -0.3 -3.7 -0.4 99 0.0 S 7 7 4 4 1019.8 1020.6 0.0
05/08:30pm -0.3 -3.5 -0.6 98 0.1 S 6 7 3 4 1019.8 1020.6 0.0
05/08:00pm 0.2 -3.0 -0.4 96 0.2 S 6 7 3 4 1019.7 1020.5 0.0
05/07:30pm 1.4 -0.4 1.1 98 0.1 CALM 0 4 0 2 1019.7 1020.5 0.0
05/07:00pm 1.8 -1.2 1.1 95 0.3 S 6 7 3 4 1019.8 1020.6 0.0
05/06:30pm 3.0 0.0 2.3 95 0.3 SSE 7 9 4 5 1019.8 1020.6 0.0
05/06:00pm 2.9 0.0 1.3 89 0.6 WSW 6 7 3 4 1019.7 1020.5 0.0
05/05:30pm 5.4 2.7 2.9 84 1.1 W 6 9 3 5 1019.4 1020.2 0.0
05/05:00pm 8.8 6.5 4.6 75 1.9 W 6 9 3 5 1019.4 1020.2 0.0
05/04:30pm 10.9 8.7 5.4 69 2.6 W 6 9 3 5 1019.4 1020.2 0.0
05/04:00pm 11.4 9.2 5.5 67 2.8 W 6 9 3 5 1019.2 1020.0 0.0
05/03:30pm 10.9 8.6 5.0 67 2.7 WSW 6 9 3 5 1019.4 1020.2 0.0
05/03:00pm 10.8 9.4 5.3 69 2.6 S 2 7 1 4 1019.3 1020.1 0.0
05/02:30pm 10.8 8.1 5.6 70 2.4 SSW 9 15 5 8 1019.4 1020.2 0.0
05/02:00pm 10.5 7.3 5.1 69 2.5 SW 11 15 6 8 1019.8 1020.6 0.0
05/01:30pm 10.7 8.4 4.6 66 2.8 WSW 6 9 3 5 1019.8 1020.6 0.0
05/01:00pm 10.6 7.7 4.7 67 2.7 S 9 13 5 7 1020.1 1020.9 0.0
05/12:30pm 10.0 7.5 4.6 69 2.5 SSW 7 9 4 5 1020.7 1021.4 0.0
05/12:00pm 9.2 6.2 4.2 71 2.2 SSE 9 13 5 7 1021.1 1021.9 0.0
05/11:30am 8.5 5.8 3.8 72 2.1 S 7 11 4 6 1021.6 1022.4 0.0
05/11:00am 8.0 6.1 3.1 71 2.1 NE 2 7 1 4 1022.0 1022.8 0.0
05/10:30am 7.1 4.5 3.2 76 1.7 NNE 6 9 3 5 1022.3 1023.1 0.0
05/10:00am 4.5 3.0 2.8 89 0.7 CALM 0 6 0 3 1022.7 1023.5 0.0
05/09:30am 2.0 -0.2 1.1 94 0.3 S 2 6 1 3 1022.8 1023.6 0.0
05/09:00am 0.3 -2.9 -0.3 96 0.2 SSE 6 6 3 3 1022.8 1023.6 0.0
05/08:30am -1.6 -5.0 -2.2 96 0.1 SSW 6 7 3 4 1022.7 1023.5 0.0
05/08:00am -3.1 -6.7 -3.5 97 0.0 SSE 6 7 3 4 1022.7 1023.5 0.0
05/07:30am -4.0 -7.9 -4.4 97 0.0 SSE 7 7 4 4 1022.8 1023.6 0.0
05/07:00am -4.7 -8.5 -5.2 96 0.0 SSW 6 7 3 4 1022.7 1023.5 0.0
05/06:30am -4.4 -7.7 -4.8 97 -0.1 SW 4 6 2 3 1022.5 1023.3 0.0
05/06:00am -3.9 -7.6 -4.2 98 -0.1 SSE 6 7 3 4 1022.1 1022.9 0.0
05/05:30am -4.3 -8.0 -4.7 97 0.0 SSW 6 7 3 4 1021.8 1022.6 0.0
05/05:00am -4.4 -8.3 -4.9 96 0.0 S 7 7 4 4 1021.7 1022.5 0.0
05/04:30am -4.0 -7.9 -4.4 97 0.0 S 7 7 4 4 1021.8 1022.6 0.0
05/04:00am -4.0 -8.3 -4.5 96 0.0 S 9 9 5 5 1022.0 1022.8 0.0
05/03:30am -4.4 -7.0 -5.1 95 0.0 CALM 0 0 0 0 1022.2 1023.0 0.0
05/03:00am -4.2 -7.5 -4.7 96 0.0 SW 4 7 2 4 1022.3 1023.1 0.0
05/02:30am -3.6 -7.2 -4.0 97 0.0 S 6 9 3 5 1022.4 1023.2 0.0
05/02:00am -3.6 -6.1 -4.1 96 0.0 CALM 0 6 0 3 1022.6 1023.4 0.0
05/01:30am -3.0 -5.4 -3.3 98 0.0 CALM 0 0 0 0 1022.6 1023.4 0.0
05/01:00am -3.1 -6.9 -3.5 97 0.0 S 7 7 4 4 1022.4 1023.2 0.0
05/12:30am -2.6 -6.3 -3.0 97 0.0 SSW 7 11 4 6 1022.8 1023.6 0.0
05/12:00am -2.7 -6.2 -3.0 98 0.0 SSW 6 7 3 4 1023.3 1024.1 0.0
 
Date/Time
EST
Temp
°C
App
Temp
°C
Dew
Point
Rel
Hum
%
Delta-T
°C
Wind Press
QNH
hPa
Press
MSL
hPa
Rain
since 9 am
mm
Dir
 
Spd
km/h
Gust
km/h
Spd
kts
Gust
kts
04/11:30pm -2.4 -5.9 -2.8 97 0.0 S 6 7 3 4 1023.4 1024.2 0.0
04/11:00pm -2.2 -5.9 -2.5 98 0.0 S 7 9 4 5 1023.3 1024.1 0.0
04/10:30pm -2.4 -5.9 -2.8 97 0.0 SSW 6 7 3 4 1023.1 1023.8 0.0
04/10:00pm -2.2 -5.9 -2.5 98 0.0 SW 7 9 4 5 1023.1 1023.8 0.0
04/09:30pm -1.9 -5.5 -2.2 98 0.0 S 7 9 4 5 1023.1 1023.8 0.0
04/09:00pm -1.6 -5.0 -2.0 97 0.1 SSW 6 7 3 4 1023.2 1023.9 0.0
04/08:30pm -1.4 -4.8 -2.0 96 0.1 S 6 7 3 4 1023.3 1024.1 0.0
04/08:00pm -0.6 -3.9 -1.0 97 0.1 SSW 6 7 3 4 1023.4 1024.2 0.0
04/07:30pm -0.9 -4.3 -1.9 93 0.3 SW 6 7 3 4 1023.5 1024.3 0.0
04/07:00pm 0.8 -2.5 0.1 95 0.3 S 7 9 4 5 1023.6 1024.4 0.0
04/06:30pm 0.9 -2.4 -0.1 93 0.4 SSW 7 9 4 5 1023.5 1024.3 0.0
04/06:00pm 2.1 -0.9 0.8 91 0.5 SSW 6 9 3 5 1023.2 1023.9 0.0
04/05:30pm 3.5 0.3 0.7 82 1.1 W 7 7 4 4 1022.9 1023.7 0.0
04/05:00pm 6.1 4.4 1.8 74 1.8 CALM 0 4 0 2 1022.8 1023.6 0.0
04/04:30pm 7.9 4.5 2.0 66 2.5 WSW 9 13 5 7 1022.8 1023.6 0.0
04/04:00pm 8.0 4.2 1.6 64 2.7 W 11 17 6 9 1022.8 1023.6 0.0
04/03:30pm 8.9 5.6 2.5 64 2.8 WSW 9 15 5 8 1022.8 1023.6 0.0
04/03:00pm 9.1 5.0 2.4 63 2.9 WSW 13 22 7 12 1022.8 1023.6 0.0
04/02:30pm 8.9 4.8 2.0 62 2.9 SW 13 19 7 10 1022.7 1023.5 0.0
04/02:00pm 8.2 3.6 1.6 63 2.8 SW 15 24 8 13 1022.9 1023.7 0.0
04/01:30pm 8.6 4.3 1.3 60 3.1 SW 13 22 7 12 1023.2 1023.9 0.0
04/01:00pm 8.0 3.3 1.0 61 2.9 WSW 15 24 8 13 1023.4 1024.2 0.0
04/12:30pm 7.9 3.2 0.6 60 3.0 SSW 15 20 8 11 1023.7 1024.5 0.0
04/12:00pm 8.3 4.2 2.1 65 2.6 SW 13 20 7 11 1024.0 1024.8 0.0
04/11:30am 7.6 3.4 1.7 66 2.5 SW 13 20 7 11 1024.6 1025.4 0.0
04/11:00am 7.0 2.8 1.7 69 2.2 WSW 13 19 7 10 1025.0 1025.8 0.0
04/10:30am 6.5 3.3 2.9 78 1.5 NNW 9 13 5 7 1025.0 1025.8 0.0
04/10:00am 4.4 1.4 2.3 86 0.9 N 7 9 4 5 1025.2 1026.0 0.0
04/09:30am 3.0 1.3 1.8 92 0.5 CALM 0 0 0 0 1025.1 1025.9 0.0
04/09:00am 0.3 -2.8 -0.1 97 0.1 S 6 7 3 4 1024.7 1025.5 0.0
04/08:30am -1.4 -4.7 -1.5 99 0.0 S 6 7 3 4 1024.6 1025.4 0.0
04/08:00am -2.9 -5.7 -3.2 98 0.0 SSE 2 6 1 3 1024.5 1025.3 0.0
04/07:30am -3.5 -7.1 -3.8 98 0.0 SW 6 9 3 5 1024.5 1025.3 0.0
04/07:00am -3.2 -6.8 -3.7 96 0.0 SW 6 7 3 4 1024.2 1025.0 0.0
04/06:30am -2.4 -4.7 -2.7 98 0.0 CALM 0 0 0 0 1024.0 1024.8 0.0
04/06:00am -1.9 -5.3 -2.0 99 -0.1 SSE 6 6 3 3 1023.9 1024.7 0.0
04/05:30am -2.0 -4.7 -2.1 99 -0.1 SW 2 7 1 4 1023.7 1024.5 0.0
04/05:00am -2.0 -5.4 -2.1 99 -0.1 S 6 6 3 3 1023.7 1024.5 0.0
04/04:30am -2.2 -5.7 -2.5 98 0.0 SW 6 7 3 4 1023.8 1024.6 0.0
04/04:00am -2.4 -4.7 -2.7 98 0.0 CALM 0 0 0 0 1023.8 1024.6 0.0
04/03:30am -2.4 -5.1 -2.7 98 0.0 WSW 2 6 1 3 1024.0 1024.8 0.0
04/03:00am -2.4 -5.1 -2.7 98 0.0 SSW 2 7 1 4 1024.1 1024.9 0.0
04/02:30am -2.1 -5.6 -2.5 97 0.0 SSW 6 7 3 4 1024.7 1025.5 0.0
04/02:00am -1.5 -4.9 -1.8 98 0.0 SW 6 7 3 4 1024.5 1025.3 0.0
04/01:30am -1.6 -3.8 -1.9 98 0.0 CALM 0 0 0 0 1024.6 1025.4 0.0
04/01:00am -1.6 -4.6 -1.9 98 0.0 SW 4 6 2 3 1024.8 1025.6 0.0
04/12:30am -1.7 -5.1 -2.0 98 0.0 S 6 7 3 4 1025.1 1025.9 0.0
04/12:00am -1.7 -5.3 -2.0 98 0.0 SSE 7 7 4 4 1025.2 1026.0 0.0
 
Date/Time
EST
Temp
°C
App
Temp
°C
Dew
Point
Rel
Hum
%
Delta-T
°C
Wind Press
QNH
hPa
Press
MSL
hPa
Rain
since 9 am
mm
Dir
 
Spd
km/h
Gust
km/h
Spd
kts
Gust
kts
03/11:30pm -1.5 -5.0 -1.6 99 0.0 SW 7 9 4 5 1025.3 1026.1 0.0

Other Formats:

Comma delimited format used in spreadsheet applications
http://www.bom.gov.au/fwo/IDN60801/IDN60801.94712.axf

JavaScript Object Notation format (JSON) in row-major order
http://www.bom.gov.au/fwo/IDN60801/IDN60801.94712.json